Time;durP1;ratioP1;P1;durP2;ratioP2;P2;SDS_P1;SDS_P2;PMS_P1;PMS_P2;Temp;Humidity;BMP_temperature;BMP_pressure;BME280_temperature;BME280_humidity;BME280_pressure;Samples;Min_cycle;Max_cycle;Signal;HPM_P1;HPM_P2
2022/04/06 00:01:15;;;;;;;70.57;38.88;;;9.20;99.90;;;;;;5094392;28;20387;-81
2022/04/06 00:03:43;;;;;;;67.68;37.95;;;9.20;99.90;;;;;;5094126;28;20107;-81
2022/04/06 00:06:09;;;;;;;72.15;40.03;;;9.20;99.90;;;;;;5094237;28;20129;-81
2022/04/06 00:08:35;;;;;;;67.15;37.35;;;9.10;99.90;;;;;;5094279;28;20069;-81
2022/04/06 00:11:00;;;;;;;71.72;39.35;;;9.10;99.90;;;;;;5094184;28;20039;-81
2022/04/06 00:13:26;;;;;;;73.78;38.95;;;9.10;99.90;;;;;;5094000;28;20054;-81
2022/04/06 00:15:52;;;;;;;81.78;39.28;;;9.10;99.90;;;;;;5094049;28;20035;-81
2022/04/06 00:18:18;;;;;;;69.05;40.30;;;9.00;99.90;;;;;;5093882;28;20024;-81
2022/04/06 00:20:43;;;;;;;74.43;39.25;;;9.00;99.90;;;;;;5092702;28;20020;-81
2022/04/06 00:23:09;;;;;;;75.22;39.10;;;9.00;99.90;;;;;;5093715;28;20024;-81
2022/04/06 00:25:35;;;;;;;74.63;39.65;;;8.90;99.90;;;;;;5093862;28;20035;-81
2022/04/06 00:28:01;;;;;;;71.95;40.20;;;8.90;99.90;;;;;;5093820;28;20028;-81
2022/04/06 00:30:26;;;;;;;75.10;40.45;;;8.90;99.90;;;;;;5093794;28;20058;-81
2022/04/06 00:32:52;;;;;;;72.18;38.90;;;9.00;99.90;;;;;;5092319;28;20123;-80
2022/04/06 00:35:31;;;;;;;73.55;38.85;;;8.90;99.90;;;;;;5093232;28;20029;-81
2022/04/06 00:38:02;;;;;;;80.68;41.60;;;8.90;99.90;;;;;;5093347;28;20044;-81
2022/04/06 00:40:29;;;;;;;80.88;41.58;;;8.90;99.90;;;;;;5093682;28;20065;-81
2022/04/06 00:42:55;;;;;;;77.03;40.08;;;8.90;99.90;;;;;;5092244;28;20432;-81
2022/04/06 00:45:22;;;;;;;70.35;39.92;;;8.90;99.90;;;;;;5092133;28;20120;-80
2022/04/06 00:47:49;;;;;;;79.55;39.55;;;8.90;99.90;;;;;;5093386;28;20031;-81
2022/04/06 00:50:15;;;;;;;72.68;39.38;;;8.90;99.90;;;;;;5093408;28;20028;-81
2022/04/06 00:52:41;;;;;;;76.53;41.75;;;8.80;99.90;;;;;;5093298;28;20055;-81
2022/04/06 00:55:08;;;;;;;74.82;40.47;;;8.90;99.90;;;;;;5093339;28;20028;-81
2022/04/06 00:57:35;;;;;;;76.15;40.17;;;8.90;99.90;;;;;;5107943;28;20032;-81
2022/04/06 01:00:02;;;;;;;75.28;40.47;;;8.90;99.90;;;;;;5113699;28;20031;-81
2022/04/06 01:02:28;;;;;;;78.35;40.03;;;8.90;99.90;;;;;;5113570;28;20023;-81
2022/04/06 01:04:54;;;;;;;74.32;39.95;;;8.90;99.90;;;;;;5113703;28;20428;-81
2022/04/06 01:07:22;;;;;;;76.45;41.22;;;8.90;99.90;;;;;;5113619;28;20073;-82
2022/04/06 01:09:48;;;;;;;76.47;41.33;;;8.90;99.90;;;;;;5113540;28;20501;-81
2022/04/06 01:12:15;;;;;;;77.38;40.35;;;8.90;99.90;;;;;;5113410;28;20020;-81
2022/04/06 01:14:41;;;;;;;77.20;41.00;;;8.90;99.90;;;;;;5113469;28;20035;-81
2022/04/06 01:17:09;;;;;;;79.47;41.72;;;8.80;99.90;;;;;;5113305;28;20449;-81
2022/04/06 01:19:40;;;;;;;84.43;42.90;;;8.80;99.90;;;;;;5111989;28;20027;-81
2022/04/06 01:22:08;;;;;;;79.40;42.30;;;8.80;99.90;;;;;;5112094;28;20114;-81
2022/04/06 01:24:34;;;;;;;73.35;41.08;;;8.80;99.90;;;;;;5113401;28;20051;-81
2022/04/06 01:27:03;;;;;;;78.60;42.35;;;8.80;99.90;;;;;;5101854;28;20024;-81
2022/04/06 01:29:30;;;;;;;79.35;42.72;;;8.80;99.90;;;;;;5092922;28;20028;-81
2022/04/06 01:32:05;;;;;;;73.20;40.15;;;8.70;99.90;;;;;;5092797;28;20030;-80
2022/04/06 01:34:33;;;;;;;83.07;43.65;;;8.70;99.90;;;;;;5092879;28;20024;-81
2022/04/06 01:36:58;;;;;;;78.28;41.55;;;8.80;99.90;;;;;;5091370;28;20044;-81
2022/04/06 01:39:24;;;;;;;74.35;39.78;;;8.70;99.90;;;;;;5092952;28;20021;-81
2022/04/06 01:41:50;;;;;;;82.40;43.13;;;8.70;99.90;;;;;;5092694;28;20024;-81
2022/04/06 01:44:16;;;;;;;78.20;42.15;;;8.70;99.90;;;;;;5092734;28;20016;-80
2022/04/06 01:46:41;;;;;;;77.18;41.83;;;8.70;99.90;;;;;;5092576;28;20031;-81
2022/04/06 01:54:35;;;;;;;79.32;41.42;;;8.60;99.90;;;;;;5096822;28;20074;-81
2022/04/06 01:57:01;;;;;;;81.20;42.35;;;8.60;99.90;;;;;;5096650;28;20047;-81
2022/04/06 01:59:27;;;;;;;84.10;44.33;;;8.50;99.90;;;;;;5096760;28;20115;-81
2022/04/06 02:01:54;;;;;;;82.20;44.65;;;8.60;99.90;;;;;;5096612;28;20512;-81
2022/04/06 02:04:20;;;;;;;81.78;42.72;;;8.50;99.90;;;;;;5096565;28;20012;-81
2022/04/06 02:06:46;;;;;;;89.43;45.47;;;8.50;99.90;;;;;;5096424;28;20027;-81
2022/04/06 02:09:13;;;;;;;79.05;43.50;;;8.50;99.90;;;;;;5096549;28;20024;-81
2022/04/06 02:11:39;;;;;;;81.28;43.13;;;8.50;99.90;;;;;;5096430;28;20111;-81
2022/04/06 02:14:06;;;;;;;84.18;44.20;;;8.40;99.90;;;;;;5096444;28;20024;-81
2022/04/06 02:16:36;;;;;;;76.40;41.97;;;8.50;99.90;;;;;;5094806;28;20170;-81
2022/04/06 02:19:02;;;;;;;80.15;43.80;;;8.50;99.90;;;;;;5096346;28;20027;-81
2022/04/06 02:21:27;;;;;;;81.63;43.83;;;8.50;99.90;;;;;;5096103;28;20016;-82
2022/04/06 02:23:53;;;;;;;83.95;44.90;;;8.60;99.90;;;;;;5096110;28;20016;-81
2022/04/06 02:26:19;;;;;;;80.25;41.28;;;8.60;99.90;;;;;;5101605;28;20028;-81
2022/04/06 02:28:45;;;;;;;77.82;43.13;;;8.60;99.90;;;;;;5116579;28;20062;-81
2022/04/06 02:31:10;;;;;;;76.15;42.53;;;8.60;99.90;;;;;;5116405;28;20076;-81
2022/04/06 02:33:36;;;;;;;81.28;44.95;;;8.60;99.90;;;;;;5116465;28;20023;-81
2022/04/06 02:36:03;;;;;;;79.50;41.28;;;8.60;99.90;;;;;;5116161;28;20044;-82
2022/04/06 02:38:29;;;;;;;79.32;42.08;;;8.60;99.90;;;;;;5116330;28;20020;-81
2022/04/06 02:40:55;;;;;;;78.43;44.15;;;8.60;99.90;;;;;;5116361;28;20475;-81
2022/04/06 02:43:21;;;;;;;80.22;43.75;;;8.50;99.90;;;;;;5115930;28;20020;-81
2022/04/06 02:45:47;;;;;;;75.47;40.58;;;8.50;99.90;;;;;;5116141;28;20031;-81
2022/04/06 02:48:15;;;;;;;80.15;43.60;;;8.50;99.90;;;;;;5116058;28;20016;-81
2022/04/06 02:50:42;;;;;;;82.05;41.83;;;8.50;99.90;;;;;;5116128;28;20466;-81
2022/04/06 02:53:07;;;;;;;83.18;44.97;;;8.60;99.90;;;;;;5115998;28;20030;-81
2022/04/06 02:55:33;;;;;;;86.57;44.58;;;8.50;99.90;;;;;;5115934;28;20527;-81
2022/04/06 02:57:59;;;;;;;81.35;44.33;;;8.60;99.90;;;;;;5096141;28;20483;-81
2022/04/06 03:00:26;;;;;;;82.35;44.97;;;8.60;99.90;;;;;;5095478;28;20077;-81
2022/04/06 03:02:52;;;;;;;83.68;43.85;;;8.60;99.90;;;;;;5095389;28;20099;-80
2022/04/06 03:05:18;;;;;;;83.30;44.97;;;8.60;99.90;;;;;;5094107;28;20111;-81
2022/04/06 03:07:43;;;;;;;77.38;41.42;;;8.60;99.90;;;;;;5095442;28;20024;-81
2022/04/06 03:10:09;;;;;;;82.65;44.80;;;8.60;99.90;;;;;;5094036;28;20394;-81
2022/04/06 03:12:35;;;;;;;80.15;43.80;;;8.60;99.90;;;;;;5095158;28;20020;-81
2022/04/06 03:15:01;;;;;;;78.60;43.85;;;8.60;99.90;;;;;;5095261;28;20540;-81
2022/04/06 03:17:26;;;;;;;76.82;43.65;;;8.60;99.90;;;;;;5095117;28;20074;-80
2022/04/06 03:19:52;;;;;;;84.10;44.67;;;8.50;99.90;;;;;;5095188;28;20020;-82
2022/04/06 03:22:18;;;;;;;86.00;44.25;;;8.50;99.90;;;;;;5094976;28;20180;-81
2022/04/06 03:24:44;;;;;;;89.40;45.30;;;8.50;99.90;;;;;;5095179;28;20490;-81
2022/04/06 03:27:10;;;;;;;80.03;45.00;;;8.50;99.90;;;;;;5107593;28;20031;-81
2022/04/06 03:29:36;;;;;;;85.93;44.67;;;8.50;99.90;;;;;;5114095;28;20027;-81
2022/04/06 03:32:02;;;;;;;79.35;44.60;;;8.50;99.90;;;;;;5115238;28;20028;-81
2022/04/06 03:34:28;;;;;;;84.60;47.05;;;8.50;99.90;;;;;;5115278;28;20053;-81
2022/04/06 03:36:54;;;;;;;81.18;44.50;;;8.50;99.90;;;;;;5115027;28;20040;-82
2022/04/06 03:39:19;;;;;;;82.35;44.10;;;8.50;99.90;;;;;;5115147;28;20102;-81
2022/04/06 03:41:45;;;;;;;84.15;46.15;;;8.50;99.90;;;;;;5115107;28;20440;-81
2022/04/06 03:44:11;;;;;;;79.68;44.85;;;8.50;99.90;;;;;;5148131;27;20053;-81
2022/04/06 03:46:36;;;;;;;85.53;45.45;;;8.50;99.90;;;;;;5148156;27;20119;-82
2022/04/06 03:49:03;;;;;;;80.45;44.33;;;8.50;99.90;;;;;;5114985;28;20027;-81
2022/04/06 03:51:29;;;;;;;82.40;44.53;;;8.40;99.90;;;;;;5114850;28;20027;-81
2022/04/06 03:53:54;;;;;;;79.85;44.97;;;8.40;99.90;;;;;;5114878;28;20027;-81
2022/04/06 03:56:20;;;;;;;84.20;46.10;;;8.40;99.90;;;;;;5109010;28;20055;-81
2022/04/06 03:58:46;;;;;;;91.93;46.05;;;8.40;99.90;;;;;;5092981;28;20024;-81
2022/04/06 04:01:11;;;;;;;80.03;44.38;;;8.40;99.90;;;;;;5093839;28;20043;-81
2022/04/06 04:03:37;;;;;;;87.43;46.53;;;8.40;99.90;;;;;;5092818;28;20023;-81
2022/04/06 04:06:03;;;;;;;85.90;44.67;;;8.40;99.90;;;;;;5094063;28;20031;-81
2022/04/06 04:08:29;;;;;;;81.32;44.08;;;8.40;99.90;;;;;;5093973;28;20031;-82
2022/04/06 04:10:54;;;;;;;85.68;45.78;;;8.40;99.90;;;;;;5092997;28;20051;-81
2022/04/06 04:13:20;;;;;;;81.35;43.55;;;8.30;99.90;;;;;;5093902;28;20566;-81
2022/04/06 04:15:46;;;;;;;80.28;44.30;;;8.40;99.90;;;;;;5093854;28;20031;-81
2022/04/06 04:18:11;;;;;;;82.80;46.35;;;8.30;99.90;;;;;;5094099;28;20365;-81
2022/04/06 04:20:40;;;;;;;79.80;43.75;;;8.30;99.90;;;;;;5092863;28;20031;-81
2022/04/06 04:23:06;;;;;;;83.38;45.25;;;8.30;99.90;;;;;;5092868;28;20055;-82
2022/04/06 04:25:31;;;;;;;86.70;43.78;;;8.30;99.90;;;;;;5092803;28;20028;-82
2022/04/06 04:27:57;;;;;;;78.57;44.38;;;8.30;99.90;;;;;;5094133;28;20031;-82
2022/04/06 04:30:23;;;;;;;85.60;45.75;;;8.30;99.90;;;;;;5094197;28;20686;-81
2022/04/06 04:32:48;;;;;;;83.57;44.15;;;8.20;99.90;;;;;;5093918;28;20086;-82
2022/04/06 04:35:14;;;;;;;82.68;43.33;;;8.20;99.90;;;;;;5093899;28;20020;-81
2022/04/06 04:37:40;;;;;;;82.70;45.08;;;8.30;99.90;;;;;;5092362;28;20076;-81
2022/04/06 04:40:07;;;;;;;82.03;42.50;;;8.30;99.90;;;;;;5093935;28;20451;-81
2022/04/06 04:42:32;;;;;;;82.60;44.28;;;8.30;99.90;;;;;;5093786;28;20047;-81
2022/04/06 04:44:59;;;;;;;80.28;45.15;;;8.30;99.90;;;;;;5093778;28;20055;-81
2022/04/06 04:47:28;;;;;;;81.20;45.28;;;8.30;99.90;;;;;;5099039;28;20023;-81
2022/04/06 04:49:57;;;;;;;83.55;45.40;;;8.30;99.90;;;;;;5113866;28;20024;-82
2022/04/06 04:52:23;;;;;;;79.55;44.47;;;8.20;99.90;;;;;;5113795;28;20630;-81
2022/04/06 04:54:49;;;;;;;80.28;45.80;;;8.20;99.90;;;;;;5113776;28;20031;-82
2022/04/06 04:57:15;;;;;;;83.07;45.33;;;8.20;99.90;;;;;;5113700;28;20023;-81
2022/04/06 04:59:40;;;;;;;83.85;44.22;;;8.30;99.90;;;;;;5113681;28;20019;-81
2022/04/06 05:02:06;;;;;;;76.53;44.83;;;8.30;99.90;;;;;;5112474;28;20644;-81
2022/04/06 05:04:32;;;;;;;81.25;45.80;;;8.30;99.90;;;;;;5112220;28;20015;-81
2022/04/06 05:06:57;;;;;;;83.18;45.47;;;8.40;99.90;;;;;;5146469;27;20382;-81
2022/04/06 05:09:23;;;;;;;81.90;45.22;;;8.40;99.90;;;;;;5113530;28;20102;-81
2022/04/06 05:11:49;;;;;;;81.63;45.33;;;8.40;99.90;;;;;;5112145;28;20483;-81
2022/04/06 05:14:15;;;;;;;80.22;44.35;;;8.30;99.90;;;;;;5113471;28;20027;-82
2022/04/06 05:16:40;;;;;;;83.43;46.05;;;8.30;99.90;;;;;;5113126;28;20093;-81
2022/04/06 05:19:06;;;;;;;85.10;46.50;;;8.30;99.90;;;;;;5116675;27;20025;-81
2022/04/06 05:21:32;;;;;;;79.60;45.70;;;8.30;99.90;;;;;;5133659;27;20023;-81
2022/04/06 05:23:59;;;;;;;78.88;44.40;;;8.30;99.90;;;;;;5133864;27;20023;-81
2022/04/06 05:26:25;;;;;;;90.45;46.20;;;8.30;99.90;;;;;;5127488;27;20024;-81
2022/04/06 05:28:51;;;;;;;80.78;44.15;;;8.30;99.90;;;;;;5113200;28;20497;-81
2022/04/06 05:31:17;;;;;;;83.97;45.95;;;8.30;99.90;;;;;;5113246;28;20032;-81
2022/04/06 05:33:44;;;;;;;85.20;47.85;;;8.40;99.90;;;;;;5113123;28;20023;-81
2022/04/06 05:36:10;;;;;;;81.90;46.10;;;8.50;99.90;;;;;;5112813;28;20380;-81
2022/04/06 05:38:35;;;;;;;79.43;45.15;;;8.50;99.90;;;;;;5112959;28;20037;-81
2022/04/06 05:41:02;;;;;;;81.93;45.63;;;8.50;99.90;;;;;;5113044;28;20054;-81
2022/04/06 05:43:29;;;;;;;82.45;46.72;;;8.50;99.90;;;;;;5112922;28;20016;-81
2022/04/06 05:45:55;;;;;;;85.95;46.33;;;8.50;99.90;;;;;;5111786;28;20543;-81
2022/04/06 05:48:21;;;;;;;80.43;45.35;;;8.60;99.90;;;;;;5112575;28;20039;-81
2022/04/06 05:50:46;;;;;;;84.40;45.92;;;8.70;99.90;;;;;;5113034;28;20548;-81
2022/04/06 05:53:12;;;;;;;85.40;46.33;;;8.70;99.90;;;;;;5112975;28;20493;-81
2022/04/06 05:55:38;;;;;;;85.25;47.60;;;8.70;99.90;;;;;;5112907;28;20027;-81
2022/04/06 05:58:04;;;;;;;84.03;47.65;;;8.70;99.90;;;;;;5111578;28;20024;-81
2022/04/06 06:00:30;;;;;;;82.40;44.97;;;8.80;99.90;;;;;;5111708;28;20070;-81
2022/04/06 06:02:55;;;;;;;78.88;44.80;;;8.80;99.90;;;;;;5113037;28;20153;-81
2022/04/06 06:05:21;;;;;;;80.30;46.05;;;8.80;99.90;;;;;;5112914;28;20027;-81
2022/04/06 06:07:47;;;;;;;86.05;47.97;;;8.90;99.90;;;;;;5112905;28;20482;-80
2022/04/06 06:10:12;;;;;;;87.30;46.97;;;8.90;99.90;;;;;;5111578;28;20039;-80
2022/04/06 06:12:38;;;;;;;84.47;45.15;;;8.90;99.90;;;;;;5112860;28;20202;-79
2022/04/06 06:15:06;;;;;;;87.13;47.05;;;8.90;99.90;;;;;;5112827;28;20047;-80
2022/04/06 06:17:36;;;;;;;82.85;45.78;;;9.00;99.90;;;;;;5112075;28;20051;-80
2022/04/06 06:20:01;;;;;;;79.45;45.30;;;9.10;99.90;;;;;;5112915;28;20424;-80
2022/04/06 06:22:27;;;;;;;81.13;45.42;;;9.20;99.90;;;;;;5111457;28;20028;-81
2022/04/06 06:24:53;;;;;;;83.50;45.95;;;9.20;99.90;;;;;;5112852;28;20494;-80
2022/04/06 06:27:19;;;;;;;80.22;44.80;;;9.30;99.90;;;;;;5112716;28;20023;-81
2022/04/06 06:29:47;;;;;;;81.28;44.97;;;9.30;99.90;;;;;;5112795;28;20099;-80
2022/04/06 06:32:13;;;;;;;86.97;45.83;;;9.40;99.90;;;;;;5112235;28;20031;-81
2022/04/06 06:34:39;;;;;;;80.68;43.33;;;9.40;99.90;;;;;;5115152;28;20031;-81
2022/04/06 06:37:05;;;;;;;84.47;44.22;;;9.50;99.90;;;;;;5116211;28;20048;-81
2022/04/06 06:39:31;;;;;;;82.43;44.95;;;9.50;99.90;;;;;;5116359;28;20450;-80
2022/04/06 06:41:57;;;;;;;86.72;44.67;;;9.60;99.90;;;;;;5116313;28;20043;-80
2022/04/06 06:44:22;;;;;;;79.63;45.72;;;9.70;99.90;;;;;;5116324;28;20020;-81
2022/04/06 06:46:48;;;;;;;81.90;44.85;;;9.70;99.90;;;;;;5116276;28;20039;-81
2022/04/06 06:49:15;;;;;;;87.05;45.63;;;9.80;99.90;;;;;;5114941;28;20023;-81
2022/04/06 06:51:42;;;;;;;83.97;44.72;;;9.80;99.90;;;;;;5114735;28;20393;-81
2022/04/06 06:54:07;;;;;;;79.80;43.28;;;9.90;99.90;;;;;;5116034;28;20387;-81
2022/04/06 06:56:33;;;;;;;81.28;44.60;;;9.90;99.90;;;;;;5115901;28;20032;-80
2022/04/06 06:58:59;;;;;;;77.45;43.05;;;10.00;99.90;;;;;;5115784;28;20114;-79
2022/04/06 07:01:25;;;;;;;74.35;42.05;;;10.10;99.90;;;;;;5115750;28;20107;-79
2022/04/06 07:03:50;;;;;;;80.45;43.15;;;10.10;99.90;;;;;;5114181;28;20387;-79
2022/04/06 07:06:17;;;;;;;83.03;43.47;;;10.20;99.90;;;;;;5114268;28;20032;-79
2022/04/06 07:08:43;;;;;;;82.00;43.35;;;10.30;99.90;;;;;;5113001;28;20031;-75
2022/04/06 07:11:09;;;;;;;80.20;44.75;;;10.40;99.90;;;;;;5113852;28;20019;-75
2022/04/06 07:13:35;;;;;;;72.65;40.13;;;10.40;99.90;;;;;;5113968;28;20027;-75
2022/04/06 07:16:02;;;;;;;75.05;40.97;;;10.50;99.90;;;;;;5113934;28;20050;-75
2022/04/06 07:18:28;;;;;;;79.43;41.80;;;10.60;99.90;;;;;;5113854;28;20046;-74
2022/04/06 07:20:54;;;;;;;71.63;40.35;;;10.60;99.90;;;;;;5115172;28;20497;-75
2022/04/06 07:23:19;;;;;;;72.40;39.47;;;10.70;99.90;;;;;;5115169;28;20027;-75
2022/04/06 07:25:45;;;;;;;67.97;37.42;;;10.80;99.90;;;;;;5114974;28;20043;-75
2022/04/06 07:28:11;;;;;;;69.90;36.40;;;10.70;99.90;;;;;;5115267;28;20020;-75
2022/04/06 07:30:37;;;;;;;62.33;35.30;;;10.90;99.90;;;;;;5114606;28;20016;-75
2022/04/06 07:33:03;;;;;;;66.63;36.17;;;10.90;99.90;;;;;;5115063;28;20020;-75
2022/04/06 07:35:31;;;;;;;66.88;36.22;;;11.00;99.90;;;;;;5113688;28;20486;-75
2022/04/06 07:37:57;;;;;;;63.53;34.97;;;11.10;99.90;;;;;;5114652;28;20051;-75
2022/04/06 07:40:24;;;;;;;68.45;36.85;;;11.00;99.90;;;;;;5114858;28;20035;-75
2022/04/06 07:42:51;;;;;;;67.80;36.33;;;11.10;99.90;;;;;;5114319;28;20035;-75
2022/04/06 07:45:18;;;;;;;64.38;35.05;;;11.20;99.90;;;;;;5114875;28;20033;-75
2022/04/06 07:47:52;;;;;;;67.57;37.17;;;11.20;99.90;;;;;;5113489;28;20032;-75
2022/04/06 07:50:19;;;;;;;67.95;36.78;;;11.30;99.90;;;;;;5113430;28;20054;-75
2022/04/06 07:52:46;;;;;;;71.68;37.80;;;11.40;99.90;;;;;;5114427;27;20386;-75
2022/04/06 07:55:13;;;;;;;66.47;35.95;;;11.40;99.90;;;;;;5114653;27;20585;-75
2022/04/06 07:57:40;;;;;;;61.03;34.63;;;11.40;99.90;;;;;;5114614;28;20129;-75
2022/04/06 08:00:16;;;;;;;66.95;36.60;;;11.50;99.90;;;;;;5114724;28;20024;-75
2022/04/06 08:02:46;;;;;;;63.17;34.88;;;11.60;99.90;;;;;;5114524;28;20367;-75
2022/04/06 08:05:12;;;;;;;67.97;36.20;;;11.70;99.90;;;;;;5114448;28;20065;-75
2022/04/06 08:07:43;;;;;;;65.80;34.78;;;11.70;99.90;;;;;;5114480;27;20028;-75
2022/04/06 08:10:13;;;;;;;62.10;34.97;;;11.80;99.90;;;;;;5114280;28;20115;-75
2022/04/06 08:12:39;;;;;;;63.70;35.25;;;11.90;99.90;;;;;;5114122;28;20285;-75
2022/04/06 08:15:05;;;;;;;67.88;36.55;;;11.90;99.90;;;;;;5112884;28;20066;-75
2022/04/06 08:17:42;;;;;;;64.68;35.38;;;11.90;99.90;;;;;;5114039;28;20024;-75
2022/04/06 08:20:09;;;;;;;61.35;33.75;;;11.90;99.90;;;;;;5112707;28;20054;-75
2022/04/06 08:22:36;;;;;;;60.40;35.47;;;12.00;99.90;;;;;;5113946;28;20398;-75
2022/04/06 08:25:02;;;;;;;65.63;35.85;;;12.00;99.90;;;;;;5114117;28;20027;-75
2022/04/06 08:27:28;;;;;;;65.15;35.78;;;12.10;99.90;;;;;;5098793;28;20031;-75
2022/04/06 08:29:55;;;;;;;65.60;35.75;;;12.30;99.90;;;;;;5093694;28;20020;-75
2022/04/06 08:32:21;;;;;;;63.13;34.78;;;12.40;99.90;;;;;;5093312;28;20360;-75
2022/04/06 08:34:48;;;;;;;67.63;37.03;;;12.40;99.90;;;;;;5093175;28;20016;-75
2022/04/06 08:37:14;;;;;;;63.67;34.63;;;12.50;99.90;;;;;;5093278;28;20051;-75
2022/04/06 08:39:41;;;;;;;60.95;33.42;;;12.50;99.90;;;;;;5093451;28;20017;-75
2022/04/06 08:42:07;;;;;;;62.95;33.80;;;12.50;99.90;;;;;;5093181;28;20020;-75
2022/04/06 08:44:33;;;;;;;60.83;34.03;;;12.50;99.90;;;;;;5093122;28;20486;-75
2022/04/06 08:47:06;;;;;;;63.85;34.35;;;12.50;99.90;;;;;;5091976;28;20028;-75
2022/04/06 08:49:34;;;;;;;63.65;35.22;;;12.60;99.90;;;;;;5093195;28;20024;-75
2022/04/06 08:52:01;;;;;;;60.95;33.83;;;12.60;99.90;;;;;;5092887;28;20020;-75
2022/04/06 08:54:27;;;;;;;65.25;34.45;;;12.60;99.90;;;;;;5093029;28;20020;-75
2022/04/06 08:56:54;;;;;;;65.80;34.90;;;12.70;99.90;;;;;;5102894;28;20036;-75
2022/04/06 08:59:20;;;;;;;59.25;32.80;;;12.70;99.90;;;;;;5111987;28;20371;-75
2022/04/06 09:01:46;;;;;;;62.47;31.70;;;12.70;99.90;;;;;;5146229;27;20024;-75
2022/04/06 09:04:12;;;;;;;59.97;32.83;;;12.70;99.90;;;;;;5113230;28;20053;-75
2022/04/06 09:06:44;;;;;;;54.58;31.92;;;12.80;99.90;;;;;;5112082;28;20028;-75
2022/04/06 09:09:11;;;;;;;58.30;33.38;;;12.90;99.90;;;;;;5111261;28;20028;-75
2022/04/06 09:11:44;;;;;;;55.08;30.48;;;13.00;99.90;;;;;;5111853;28;20027;-75
2022/04/06 09:14:11;;;;;;;49.05;28.50;;;13.10;99.90;;;;;;5111878;28;20032;-75
2022/04/06 09:16:38;;;;;;;53.72;28.77;;;13.10;99.90;;;;;;5111737;28;20020;-75
2022/04/06 09:19:12;;;;;;;48.70;27.35;;;13.10;99.90;;;;;;5112624;28;20489;-75
2022/04/06 09:21:47;;;;;;;48.15;26.10;;;13.20;99.90;;;;;;5112916;28;20073;-75
2022/04/06 09:24:17;;;;;;;48.25;27.98;;;13.20;99.90;;;;;;5111231;28;20382;-75
2022/04/06 09:26:43;;;;;;;46.50;25.58;;;13.30;99.90;;;;;;5103543;28;20021;-75
2022/04/06 09:29:13;;;;;;;49.22;27.67;;;13.40;99.90;;;;;;5092434;28;20036;-75
2022/04/06 09:31:40;;;;;;;54.63;29.40;;;13.50;99.90;;;;;;5091493;28;20027;-75
2022/04/06 09:34:10;;;;;;;51.58;29.58;;;13.60;99.90;;;;;;5092323;28;20032;-79
2022/04/06 09:36:38;;;;;;;49.75;25.10;;;13.70;99.90;;;;;;5092639;28;20438;-79
2022/04/06 09:39:05;;;;;;;36.47;22.02;;;13.60;99.90;;;;;;5092890;28;20078;-79
2022/04/06 09:41:33;;;;;;;45.83;26.05;;;13.60;99.90;;;;;;5092782;28;20422;-79
2022/04/06 09:47:40;;;;;;;44.08;25.35;;;14.00;99.90;;;;;;5113535;28;20055;-79
2022/04/06 09:50:14;;;;;;;41.25;23.88;;;14.10;99.50;;;;;;5113369;28;20032;-79
2022/04/06 09:52:44;;;;;;;37.70;23.35;;;14.00;98.80;;;;;;5112739;28;20069;-79
2022/04/06 09:55:13;;;;;;;39.22;22.35;;;14.30;99.90;;;;;;5113037;28;20032;-79
2022/04/06 09:57:40;;;;;;;41.22;23.95;;;14.30;99.20;;;;;;5112896;28;20428;-79
2022/04/06 10:00:07;;;;;;;39.75;21.67;;;14.30;98.60;;;;;;5113207;28;20012;-79
2022/04/06 10:02:34;;;;;;;44.13;22.42;;;14.50;99.60;;;;;;5111615;28;20024;-79
2022/04/06 10:05:03;;;;;;;50.17;24.95;;;14.50;98.60;;;;;;5112873;28;20019;-79
2022/04/06 10:07:29;;;;;;;35.88;21.92;;;14.60;99.40;;;;;;5113146;28;20028;-79
2022/04/06 10:09:56;;;;;;;41.72;23.38;;;14.60;99.10;;;;;;5116069;28;20451;-79
2022/04/06 10:12:23;;;;;;;42.88;23.75;;;14.70;97.40;;;;;;5117003;28;20039;-79
2022/04/06 10:14:50;;;;;;;39.55;22.58;;;14.70;98.60;;;;;;5116907;28;20016;-79
2022/04/06 10:17:17;;;;;;;37.83;22.70;;;14.80;97.30;;;;;;5116809;27;20032;-79
2022/04/06 10:19:56;;;;;;;39.63;22.70;;;14.70;96.80;;;;;;5116973;28;20422;-79
2022/04/06 10:22:43;;;;;;;40.78;22.33;;;14.80;96.90;;;;;;5116726;28;20024;-79
2022/04/06 10:25:52;;;;;;;36.10;21.70;;;15.00;98.60;;;;;;5116757;28;20028;-79
2022/04/06 10:28:22;;;;;;;38.83;22.15;;;15.10;97.70;;;;;;5017468;28;20475;-79
2022/04/06 10:31:11;;;;;;;42.67;23.75;;;15.10;98.00;;;;;;5033799;28;20029;-79
2022/04/06 10:33:37;;;;;;;49.97;23.95;;;15.20;97.30;;;;;;5074685;28;20471;-79
2022/04/06 10:36:29;;;;;;;42.65;22.90;;;15.20;95.70;;;;;;5095951;28;20052;-79
2022/04/06 10:39:07;;;;;;;43.13;24.92;;;15.10;95.80;;;;;;5094911;28;20100;-79
2022/04/06 10:41:59;;;;;;;43.17;25.48;;;15.10;96.70;;;;;;5095910;28;20330;-79
2022/04/06 10:44:51;;;;;;;43.13;25.13;;;15.20;96.80;;;;;;5095892;28;20031;-79
2022/04/06 10:47:17;;;;;;;41.33;24.27;;;15.30;96.30;;;;;;5091954;28;20035;-79
2022/04/06 10:50:13;;;;;;;43.72;25.17;;;15.40;95.90;;;;;;5095692;28;20020;-79
2022/04/06 10:52:39;;;;;;;39.33;23.38;;;15.60;96.20;;;;;;5094104;28;20032;-79
2022/04/06 10:55:09;;;;;;;44.40;26.02;;;15.70;96.60;;;;;;5094440;28;20165;-79
2022/04/06 10:58:01;;;;;;;46.33;25.65;;;15.70;94.90;;;;;;5111715;28;20032;-79
2022/04/06 11:00:27;;;;;;;38.65;23.33;;;15.70;95.60;;;;;;5115964;28;20027;-79
2022/04/06 11:02:54;;;;;;;38.80;22.10;;;15.70;94.90;;;;;;5115950;28;20020;-79
2022/04/06 11:05:49;;;;;;;41.97;22.63;;;15.80;95.60;;;;;;5116039;28;20027;-79
2022/04/06 11:11:44;;;;;;;39.03;21.75;;;15.80;94.20;;;;;;5115816;28;20034;-79
2022/04/06 11:14:11;;;;;;;37.13;22.73;;;15.80;93.60;;;;;;5115757;28;20019;-79
2022/04/06 11:16:45;;;;;;;38.95;22.05;;;15.80;94.50;;;;;;5114377;28;20027;-78
2022/04/06 11:19:15;;;;;;;37.58;20.83;;;15.80;94.30;;;;;;5115219;28;20024;-79
2022/04/06 11:21:55;;;;;;;35.47;21.00;;;15.90;94.10;;;;;;5115675;28;20018;-78
2022/04/06 11:24:28;;;;;;;40.20;21.75;;;16.00;93.90;;;;;;5115699;28;20020;-79
2022/04/06 11:26:54;;;;;;;41.58;22.85;;;16.00;92.90;;;;;;5115445;28;20102;-79
2022/04/06 11:29:26;;;;;;;38.22;22.80;;;16.00;92.90;;;;;;5115479;28;20035;-78
2022/04/06 11:32:03;;;;;;;;;;;16.10;93.30;;;;;;5115907;28;20026;-79
2022/04/06 11:34:39;;;;;;;34.78;20.45;;;16.00;92.80;;;;;;5115693;28;19903;-79
2022/04/06 11:37:07;;;;;;;37.15;22.65;;;16.10;92.80;;;;;;5115151;28;20048;-79
2022/04/06 11:39:34;;;;;;;32.22;20.48;;;16.10;92.30;;;;;;5113775;28;20020;-78
2022/04/06 11:42:04;;;;;;;38.25;21.77;;;16.20;92.60;;;;;;5115241;28;20020;-78
2022/04/06 11:44:32;;;;;;;34.42;20.95;;;16.20;92.20;;;;;;5115161;28;20022;-78
2022/04/06 11:46:58;;;;;;;36.55;21.38;;;16.30;91.80;;;;;;5115230;28;20027;-79
2022/04/06 11:49:29;;;;;;;31.40;20.33;;;16.40;92.50;;;;;;5115091;28;20023;-78
2022/04/06 11:51:59;;;;;;;30.70;20.30;;;16.60;92.80;;;;;;5115018;28;20026;-78
2022/04/06 11:54:26;;;;;;;36.17;20.77;;;16.70;91.60;;;;;;5114910;28;20034;-78
2022/04/06 11:56:52;;;;;;;40.33;23.55;;;16.50;90.10;;;;;;5104799;28;20028;-78
2022/04/06 11:59:22;;;;;;;35.63;21.77;;;16.50;91.00;;;;;;5094669;28;20016;-79
2022/04/06 12:01:49;;;;;;;34.05;19.95;;;16.70;91.40;;;;;;5094437;28;20449;-79
2022/04/06 12:04:21;;;;;;;35.88;21.80;;;16.80;91.40;;;;;;5094352;28;20020;-79
2022/04/06 12:06:46;;;;;;;;;;;17.00;91.80;;;;;;5094774;28;20435;-79
2022/04/06 12:09:13;;;;;;;34.25;20.90;;;17.00;91.40;;;;;;5092854;28;19996;-79
2022/04/06 12:11:39;;;;;;;38.17;22.17;;;16.80;91.10;;;;;;5094181;28;20028;-79
2022/04/06 12:14:06;;;;;;;37.97;22.17;;;16.70;91.80;;;;;;5094245;28;20024;-79
2022/04/06 12:16:33;;;;;;;35.45;21.98;;;16.60;91.50;;;;;;5094280;28;20494;-79
2022/04/06 12:18:59;;;;;;;36.47;20.60;;;16.70;92.30;;;;;;5093846;28;20185;-78
2022/04/06 12:21:27;;;;;;;34.10;20.33;;;16.70;92.20;;;;;;5093871;28;20127;-78
2022/04/06 12:23:54;;;;;;;33.35;21.58;;;16.80;92.30;;;;;;5093763;28;20016;-79
2022/04/06 12:26:25;;;;;;;38.28;21.10;;;16.80;91.70;;;;;;5093859;28;20031;-78
2022/04/06 12:28:58;;;;;;;38.53;22.30;;;16.70;91.80;;;;;;5093922;28;20103;-79
2022/04/06 12:31:35;;;;;;;37.95;22.85;;;16.80;91.60;;;;;;5092930;28;20024;-78
2022/04/06 12:34:01;;;;;;;42.58;22.83;;;17.00;90.80;;;;;;5093733;28;20085;-78
2022/04/06 12:36:30;;;;;;;36.35;22.02;;;17.20;91.00;;;;;;5093646;28;20609;-78
2022/04/06 12:39:11;;;;;;;34.75;21.77;;;17.40;90.80;;;;;;5093824;28;20061;-78
2022/04/06 12:42:06;;;;;;;40.60;21.67;;;17.50;90.80;;;;;;5093662;28;20489;-79
2022/04/06 12:44:34;;;;;;;35.40;23.02;;;17.70;91.30;;;;;;5093717;28;20536;-78
2022/04/06 12:47:01;;;;;;;37.85;22.15;;;17.80;90.40;;;;;;5093680;28;20028;-78
2022/04/06 12:49:37;;;;;;;45.58;23.33;;;17.80;90.10;;;;;;5093510;28;20161;-78